Архив погоды в Кирсе

Метеограмма Кирс
Понедельник, 25 Июня
Время местн. Темп Ветер Видим Явления Облачность нижн/средн/верх Атм. давл. Влжн Точка росы ВНГО R Сост. почвы Tg s
Напр Скр Прв ур.ст ур.м изм
03:00 +17.1° штиль 0 0 20 км - переменная облачность 748 763 +0.3 92% +15.8° более 2.5 км - - - -
00:00 +19.1° штиль 0 1 20 км - ясно 747 762 +0.4 88% +17.1° более 2.5 км - - - -
Воскресенье, 24 Июня
Время местн. Темп Ветер Видим Явления Облачность нижн/средн/верх Атм. давл. Влжн Точка росы ВНГО R Сост. почвы Tg s
Напр Скр Прв ур.ст ур.м изм
21:00 +22.4° штиль 0 2 20 км - переменная облачность 747 762 +0.6 80% +18.7° 1 км - - - -
18:00 +29.8° Ю,Ю-В 1 5 20 км - переменная облачность 746 761 0 39% +14.5° 1 км 0 - - -
15:00 +30.2° Ю-З 1 4 20 км ливневый дождь переменная облачность 746 761 -0.1 39% +14.7° 600 м - - - -
12:00 +28.2° З 1 3 20 км - облачно с прояснениями 747 761 +0.4 42% +14° 600 м - - - -
09:00 +26.2° Ю,Ю-З 1 2 20 км - переменная облачность 746 761 0 42% +12.2° более 2.5 км - - - -
06:00 +20.8° штиль 0 0 20 км - облачно с прояснениями 746 761 +0.5 72% +15.6° - 0 Сухая (без трещин) - -
03:00 +17.7° штиль 0 0 20 км - облачно 746 760 +0.9 80% +14.2° 600 м - - - -
00:00 +18.4° штиль 0 0 20 км - облачно 745 759 +0.8 78% +14.4° 600 м - - - -
Суббота, 23 Июня
Время местн. Темп Ветер Видим Явления Облачность нижн/средн/верх Атм. давл. Влжн Точка росы ВНГО R Сост. почвы Tg s
Напр Скр Прв ур.ст ур.м изм
21:00 +21.2° З,С-З 1 2 20 км - переменная облачность 744 759 +0.4 61% +13.4° - - - - -
18:00 +24.9° С,С-З 3 6 20 км - переменная облачность 744 758 +0.1 42% +11.1° - 0 - - -
15:00 +26.6° С,С-З 3 6 20 км - облачно с прояснениями 743 758 -0.2 35% +9.9° 1 км - - - -
12:00 +23.8° С-З 3 6 20 км - облачно с прояснениями 744 758 -0.2 43% +10.4° более 2.5 км - - - -
09:00 +20.4° С,С-З 3 6 20 км - облачно с прояснениями 744 758 0 57% +11.5° более 2.5 км - - - -
06:00 +14.9° З,С-З 2 3 20 км - облачно 744 759 +0.8 80% +11.5° более 2.5 км 0 Сухая (без трещин) - -
03:00 +9.6° С-З 1 2 20 км - облачно 743 758 +0.8 97% +9.2° более 2.5 км - - - -
00:00 +11.5° С,С-З 1 2 20 км - облачно 742 757 +0.6 97% +11.1° более 2.5 км - - - -
Пятница, 22 Июня
Время местн. Темп Ветер Видим Явления Облачность нижн/средн/верх Атм. давл. Влжн Точка росы ВНГО R Сост. почвы Tg s
Напр Скр Прв ур.ст ур.м изм
21:00 +16.4° штиль 0 9 20 км - переменная облачность 742 756 +0.6 77% +12.4° более 2.5 км - - - -
18:00 +20.5° С-З 4 9 20 км - облачно с прояснениями 741 756 +0.6 59% +12.1° 1 км 0 - - -
15:00 +20.3° С-З 4 11 20 км - облачно с прояснениями 740 755 +0.5 61% +12.5° 1.5 км - - - -
12:00 +15.7° З 4 11 20 км - облачно 740 755 +1.5 78% +11.9° 600 м - - - -
09:00 +14.5° С-З 4 8 20 км - облачно 738 753 +1.6 84% +11.8° 600 м - - - -
06:00 +13.5° С-З 3 6 20 км - облачно 737 752 +1.5 93% +12.4° 1 км 0.9 Влажная (без луж) - -
03:00 +14° С-З 4 7 20 км небо без изменений {ливневые осадки} облачно 735 750 +0.9 95% +13.2° 1 км - - - -
00:00 +12.2° З 2 4 20 км небо без изменений {ливневые осадки} преимущественно облачно 734 749 +2 97% +11.7° 1 км - - - -